Wedron, Illinois
Current Conditions -  °F | °C
As of 2:15 PM on Thursday 30 Oct 2014 (Local Time) from KC09 Reporting Station
Overcast Overcast  
Wind Chill: 47°   Ceiling: 7000
Heat Index: 50°   Visibility: 10mi
Dew Point: 38°   Wind: 6mph
Humidity: 64%   Direction: 230°SW
Pressure: 30.07"   Gusts: NA
Location:  41.44°N, 88.77°W
Report Text: KC09 301915Z AUTO 23005KT 10SM OVC070 10/03 A3007 RMK AO2 T00980033
Loading
Personal Weather Stations






























Interactive Weather Map
Tropical Storm Tracking
New forecast layout! Learn more

10-Day Weather Forecast

Advertisements
Track Severe Weather on mobile